createdAt,value
2019-04-26T00:03:49.461Z,3.63
2019-04-26T00:06:18.597Z,3.53
2019-04-26T00:11:44.570Z,3.37
2019-04-26T00:14:31.076Z,3.27
2019-04-26T00:17:01.566Z,4.07
2019-04-26T00:19:29.035Z,5.83
2019-04-26T00:21:56.203Z,4.30
2019-04-26T00:24:23.337Z,6.67
2019-04-26T00:26:50.024Z,4.33
2019-04-26T00:29:17.031Z,4.97
2019-04-26T00:31:43.759Z,4.13
2019-04-26T00:34:11.135Z,3.80
2019-04-26T00:36:39.767Z,4.40
2019-04-26T00:39:06.962Z,3.90
2019-04-26T00:41:34.628Z,5.00
2019-04-26T00:44:23.263Z,3.70
2019-04-26T00:47:31.271Z,5.13
2019-04-26T00:50:39.164Z,4.33
2019-04-26T00:53:05.892Z,5.00
2019-04-26T00:56:14.640Z,5.47
2019-04-26T00:59:22.683Z,5.40
2019-04-26T01:04:44.729Z,5.00
2019-04-26T01:07:12.346Z,4.70
2019-04-26T01:09:39.571Z,5.00
2019-04-26T01:12:06.757Z,6.40
2019-04-26T01:14:33.945Z,5.87
2019-04-26T01:17:01.116Z,5.63
2019-04-26T01:20:08.991Z,5.27
2019-04-26T01:23:18.768Z,6.13
2019-04-26T01:26:06.766Z,4.97
2019-04-26T01:28:55.442Z,6.00
2019-04-26T01:31:43.761Z,6.20
2019-04-26T01:34:10.487Z,5.03
2019-04-26T01:37:19.325Z,7.47
2019-04-26T01:49:30.424Z,4.53
2019-04-26T01:52:16.802Z,6.97
2019-04-26T01:55:05.147Z,5.43
2019-04-26T01:57:32.422Z,7.83
2019-04-26T02:05:42.036Z,6.00
2019-04-26T02:08:09.156Z,5.57
2019-04-26T02:10:36.305Z,5.97
2019-04-26T02:13:03.475Z,7.03
2019-04-26T02:16:11.368Z,7.07
2019-04-26T02:18:38.370Z,10.10
2019-04-26T02:24:23.899Z,6.97
2019-04-26T02:26:52.183Z,5.73
2019-04-26T02:29:38.421Z,10.33
2019-04-26T02:34:39.952Z,7.23
2019-04-26T02:37:47.756Z,6.20
2019-04-26T02:40:55.706Z,8.47
2019-04-26T02:43:43.912Z,10.40
2019-04-26T02:49:35.027Z,7.93
2019-04-26T02:52:41.145Z,8.00
2019-04-26T02:55:53.418Z,7.23
2019-04-26T02:58:41.690Z,7.43
2019-04-26T03:01:32.288Z,7.50
2019-04-26T03:03:58.953Z,8.23
2019-04-26T03:07:02.209Z,8.30
2019-04-26T03:09:57.703Z,8.03
2019-04-26T03:13:06.028Z,7.83
2019-04-26T03:16:14.273Z,10.27
2019-04-26T03:19:23.115Z,7.00
2019-04-26T03:26:03.831Z,8.00
2019-04-26T03:29:14.284Z,10.40
2019-04-26T03:32:05.438Z,8.53
2019-04-26T03:38:45.627Z,9.33
2019-04-26T03:41:59.310Z,9.33
2019-04-26T03:45:09.450Z,12.43
2019-04-26T03:47:57.802Z,9.03
2019-04-26T03:50:47.856Z,11.03
2019-04-26T03:53:53.919Z,9.27
2019-04-26T03:57:13.245Z,14.27
2019-04-26T04:00:24.217Z,10.00
2019-04-26T04:03:09.679Z,13.40
2019-04-26T04:05:59.501Z,11.70
2019-04-26T04:08:50.226Z,11.27
2019-04-26T04:12:11.053Z,9.37
2019-04-26T04:15:13.425Z,9.67
2019-04-26T04:21:44.516Z,12.60
2019-04-26T04:27:53.409Z,9.63
2019-04-26T04:30:59.455Z,10.40
2019-04-26T04:34:05.528Z,8.70
2019-04-26T04:36:53.655Z,11.80
2019-04-26T04:40:00.427Z,9.90
2019-04-26T04:43:26.267Z,11.17
2019-04-26T04:46:53.935Z,12.57
2019-04-26T04:50:03.699Z,12.30
2019-04-26T04:53:09.792Z,12.03
2019-04-26T04:56:00.445Z,10.83
2019-04-26T04:59:11.493Z,12.23
2019-04-26T05:02:25.892Z,12.23
2019-04-26T05:09:12.124Z,11.73
2019-04-26T05:12:22.244Z,15.43
2019-04-26T05:15:48.450Z,11.50
2019-04-26T05:18:54.876Z,12.83
2019-04-26T05:22:01.235Z,12.80
2019-04-26T05:25:18.448Z,12.57
2019-04-26T05:28:27.925Z,13.97
2019-04-26T05:34:46.409Z,15.37
2019-04-26T05:37:53.603Z,14.33
2019-04-26T05:41:00.159Z,15.00
2019-04-26T05:44:13.313Z,12.97
2019-04-26T05:47:39.294Z,15.43
2019-04-26T05:54:23.776Z,12.90
2019-04-26T06:00:28.396Z,14.23
2019-04-26T06:03:57.074Z,12.87
2019-04-26T06:10:32.477Z,16.40
2019-04-26T06:13:42.714Z,12.60
2019-04-26T06:16:54.805Z,18.87
2019-04-26T06:20:21.969Z,12.20
2019-04-26T06:23:22.639Z,13.93
2019-04-26T06:26:33.732Z,14.93
2019-04-26T06:29:42.848Z,14.40
2019-04-26T06:32:56.627Z,13.83
2019-04-26T06:35:59.986Z,17.53
2019-04-26T06:42:26.987Z,15.23
2019-04-26T06:49:15.147Z,14.50
2019-04-26T06:52:05.053Z,15.60
2019-04-26T06:58:40.048Z,18.43
2019-04-26T07:01:32.039Z,14.97
2019-04-26T07:04:38.447Z,16.07
2019-04-26T07:07:30.966Z,11.17
2019-04-26T07:10:36.829Z,16.40
2019-04-26T07:13:49.491Z,16.17
2019-04-26T07:16:43.837Z,12.17
2019-04-26T07:19:59.622Z,15.63
2019-04-26T07:23:14.228Z,13.03
2019-04-26T07:26:20.292Z,11.67
2019-04-26T07:29:13.383Z,11.43
2019-04-26T07:32:19.402Z,13.27
2019-04-26T07:38:23.633Z,15.50
2019-04-26T07:48:25.023Z,12.13
2019-04-26T07:51:33.651Z,14.60
2019-04-26T07:54:39.541Z,15.80
2019-04-26T07:57:45.459Z,13.97
2019-04-26T08:04:24.579Z,12.57
2019-04-26T08:07:13.426Z,14.53
2019-04-26T08:10:22.710Z,14.40
2019-04-26T08:13:13.135Z,10.83
2019-04-26T08:16:21.769Z,10.37
2019-04-26T08:19:10.647Z,20.13
2019-04-26T08:22:22.996Z,11.37
2019-04-26T08:25:10.360Z,13.37
2019-04-26T08:28:19.138Z,15.53
2019-04-26T08:31:27.571Z,14.97
2019-04-26T08:37:32.244Z,11.97
2019-04-26T08:40:42.941Z,11.03
2019-04-26T08:43:50.989Z,14.50
2019-04-26T08:46:59.186Z,15.63
2019-04-26T08:49:46.404Z,14.30
2019-04-26T08:52:54.449Z,13.10
2019-04-26T08:55:42.746Z,16.40
2019-04-26T08:58:31.063Z,12.53
2019-04-26T09:01:41.983Z,15.43
2019-04-26T09:04:48.977Z,11.23
2019-04-26T09:07:37.792Z,14.83
2019-04-26T09:10:17.239Z,14.43
2019-04-26T09:13:05.772Z,16.13
2019-04-26T09:16:11.748Z,12.53
2019-04-26T09:18:43.532Z,11.80
2019-04-26T09:21:09.477Z,15.43
2019-04-26T09:23:58.697Z,10.73
2019-04-26T09:26:46.692Z,12.13
2019-04-26T09:29:34.163Z,9.63
2019-04-26T09:32:24.208Z,12.50
2019-04-26T09:34:49.589Z,12.13
2019-04-26T09:40:10.479Z,13.37
2019-04-26T09:42:53.465Z,11.73
2019-04-26T09:45:40.366Z,10.30
2019-04-26T09:48:12.984Z,10.77
2019-04-26T09:50:59.680Z,15.83
2019-04-26T09:53:26.408Z,10.63
2019-04-26T09:55:53.150Z,11.50
2019-04-26T09:58:19.817Z,12.03
2019-04-26T10:00:48.673Z,13.27
2019-04-26T10:03:15.470Z,11.77
2019-04-26T10:05:42.193Z,13.13
2019-04-26T10:08:12.705Z,13.67
2019-04-26T10:10:37.669Z,10.47
2019-04-26T10:13:24.058Z,11.57
2019-04-26T10:18:46.841Z,12.37
2019-04-26T10:21:14.334Z,10.83
2019-04-26T10:23:41.898Z,12.87
2019-04-26T10:26:09.137Z,11.63
2019-04-26T10:28:36.706Z,10.90
2019-04-26T10:31:04.273Z,9.50
2019-04-26T10:33:32.622Z,9.33
2019-04-26T10:36:13.212Z,8.43
2019-04-26T10:38:40.389Z,9.07
2019-04-26T10:41:07.491Z,9.37
2019-04-26T10:43:34.855Z,11.87
2019-04-26T10:46:02.641Z,8.30
2019-04-26T10:48:29.757Z,10.40
2019-04-26T10:50:56.927Z,8.37
2019-04-26T10:53:43.742Z,8.83
2019-04-26T10:56:30.756Z,11.83
2019-04-26T10:59:17.087Z,12.23
2019-04-26T11:01:44.465Z,9.53
2019-04-26T11:04:11.553Z,11.33
2019-04-26T11:06:38.629Z,9.13
2019-04-26T11:09:26.916Z,6.70
2019-04-26T11:11:53.686Z,11.03
2019-04-26T11:14:22.656Z,7.33
2019-04-26T11:16:49.604Z,9.97
2019-04-26T11:19:17.099Z,8.30
2019-04-26T11:21:44.560Z,7.03
2019-04-26T11:24:15.224Z,11.00
2019-04-26T11:26:40.690Z,10.17
2019-04-26T11:29:08.151Z,6.73
2019-04-26T11:31:35.444Z,8.00
2019-04-26T11:34:23.622Z,8.33
2019-04-26T11:36:51.827Z,10.43
2019-04-26T11:39:20.345Z,10.20
2019-04-26T11:41:47.548Z,9.47
2019-04-26T11:44:14.658Z,6.23
2019-04-26T11:46:44.993Z,9.03
2019-04-26T11:49:32.839Z,11.57
2019-04-26T11:52:02.804Z,5.93
2019-04-26T11:54:28.655Z,7.00
2019-04-26T11:57:15.249Z,7.07
2019-04-26T11:59:42.331Z,6.33
2019-04-26T12:02:12.325Z,7.60
2019-04-26T12:04:59.576Z,7.60
2019-04-26T12:07:29.416Z,9.70
2019-04-26T12:09:57.898Z,8.33
2019-04-26T12:12:24.612Z,11.87
2019-04-26T12:14:51.339Z,7.80
2019-04-26T12:17:18.100Z,9.03
2019-04-26T12:19:48.130Z,8.90
2019-04-26T12:22:13.740Z,7.83
2019-04-26T12:24:40.793Z,7.77
2019-04-26T12:27:10.203Z,7.83
2019-04-26T12:29:36.446Z,10.37
2019-04-26T12:32:03.319Z,9.83
2019-04-26T12:34:30.051Z,4.23
2019-04-26T12:36:57.702Z,6.07
2019-04-26T12:39:44.278Z,4.53
2019-04-26T12:42:12.343Z,7.17
2019-04-26T12:47:56.362Z,6.47
2019-04-26T12:50:23.195Z,7.40
2019-04-26T12:52:51.514Z,5.20
2019-04-26T12:55:20.178Z,5.27
2019-04-26T12:57:48.174Z,6.37
2019-04-26T13:05:41.063Z,5.40
2019-04-26T13:08:07.795Z,5.33
2019-04-26T13:13:54.338Z,5.27
2019-04-26T13:16:40.989Z,5.43
2019-04-26T13:19:08.107Z,4.67
2019-04-26T13:21:37.283Z,4.23
2019-04-26T13:24:06.063Z,4.73
2019-04-26T13:26:34.751Z,4.63
2019-04-26T13:29:02.058Z,5.13
2019-04-26T13:31:31.662Z,6.57
2019-04-26T13:33:58.434Z,6.13
2019-04-26T13:36:29.088Z,3.83
2019-04-26T13:38:55.340Z,6.23
2019-04-26T13:41:22.241Z,4.07
2019-04-26T13:43:49.149Z,7.53
2019-04-26T13:46:35.518Z,6.00
2019-04-26T13:49:22.105Z,5.03
2019-04-26T13:51:49.586Z,6.50
2019-04-26T13:54:36.223Z,6.60
2019-04-26T13:57:06.183Z,6.50
2019-04-26T13:59:41.174Z,5.33
2019-04-26T14:02:11.584Z,5.37
2019-04-26T14:04:37.063Z,5.80
2019-04-26T14:07:06.100Z,4.93
2019-04-26T14:09:32.880Z,3.93
2019-04-26T14:12:03.284Z,3.13
2019-04-26T14:14:45.279Z,4.90
2019-04-26T14:17:12.430Z,3.00
2019-04-26T14:19:39.320Z,3.80
2019-04-26T14:22:07.113Z,4.60
2019-04-26T14:25:16.584Z,6.13
2019-04-26T14:27:49.953Z,5.63
2019-04-26T14:33:26.998Z,2.73
2019-04-26T14:35:54.558Z,4.50
2019-04-26T14:38:27.668Z,5.27
2019-04-26T14:41:03.281Z,7.60
2019-04-26T14:43:39.997Z,4.83
2019-04-26T14:45:58.575Z,6.87
2019-04-26T14:48:35.716Z,5.97
2019-04-26T14:51:07.210Z,5.17
2019-04-26T14:53:24.032Z,3.60
2019-04-26T14:55:54.571Z,4.37
2019-04-26T14:58:23.834Z,2.73
2019-04-26T15:03:51.494Z,4.03
2019-04-26T15:06:23.321Z,4.20
2019-04-26T15:08:50.029Z,6.33
2019-04-26T15:11:17.074Z,3.90
2019-04-26T15:13:44.754Z,3.47
2019-04-26T15:16:14.008Z,4.60
2019-04-26T15:19:16.782Z,5.40
2019-04-26T15:21:43.971Z,4.57
2019-04-26T15:24:12.837Z,4.50
2019-04-26T15:26:40.668Z,5.43
2019-04-26T15:29:07.886Z,7.53
2019-04-26T15:31:35.598Z,6.87
2019-04-26T15:34:03.408Z,3.80
2019-04-26T15:36:30.772Z,3.40
2019-04-26T15:41:54.300Z,6.57
2019-04-26T15:44:40.544Z,3.67
2019-04-26T15:47:13.625Z,3.10
2019-04-26T15:50:03.946Z,3.67
2019-04-26T15:52:30.099Z,2.10
2019-04-26T15:55:01.408Z,6.33
2019-04-26T15:57:46.717Z,8.77
2019-04-26T16:03:07.637Z,4.80
2019-04-26T16:05:35.856Z,4.00
2019-04-26T16:08:04.546Z,4.37
2019-04-26T16:10:34.656Z,3.20
2019-04-26T16:13:16.249Z,3.70
2019-04-26T16:15:32.229Z,3.47
2019-04-26T16:18:16.984Z,2.43
2019-04-26T16:20:42.836Z,4.73
2019-04-26T16:23:13.209Z,4.83
2019-04-26T16:25:42.823Z,3.90
2019-04-26T16:28:31.005Z,4.63
2019-04-26T16:31:19.478Z,4.83
2019-04-26T16:36:36.654Z,6.70
2019-04-26T16:41:53.694Z,6.40
2019-04-26T16:44:44.910Z,6.17
2019-04-26T16:47:13.092Z,2.30
2019-04-26T16:49:43.424Z,5.00
2019-04-26T16:52:10.609Z,11.47
2019-04-26T16:54:37.898Z,4.97
2019-04-26T16:57:11.143Z,4.07
2019-04-26T16:59:34.021Z,6.70
2019-04-26T17:02:02.475Z,5.37
2019-04-26T17:07:04.268Z,6.23
2019-04-26T17:09:41.876Z,7.60
2019-04-26T17:09:59.486Z,5.47
2019-04-26T17:12:17.374Z,4.43
2019-04-26T17:14:48.671Z,5.43
2019-04-26T17:17:14.422Z,3.17
2019-04-26T17:19:43.228Z,7.73
2019-04-26T17:22:42.237Z,5.27
2019-04-26T17:25:39.405Z,2.97
2019-04-26T17:28:06.164Z,4.93
2019-04-26T17:30:40.796Z,5.03
2019-04-26T17:33:02.955Z,8.90
2019-04-26T17:35:30.411Z,3.97
2019-04-26T17:38:01.081Z,3.27
2019-04-26T17:40:30.164Z,5.47
2019-04-26T17:43:00.533Z,9.17
2019-04-26T17:45:27.958Z,8.77
2019-04-26T17:47:54.820Z,5.57
2019-04-26T17:51:04.550Z,6.47
2019-04-26T17:52:51.615Z,6.00
2019-04-26T17:55:20.157Z,4.97
2019-04-26T17:57:49.982Z,9.20
2019-04-26T18:03:14.672Z,7.30
2019-04-26T18:05:55.936Z,4.73
2019-04-26T18:08:31.413Z,7.50
2019-04-26T18:10:40.803Z,6.67
2019-04-26T18:13:09.788Z,5.80
2019-04-26T18:15:39.980Z,5.80
2019-04-26T18:18:24.957Z,3.70
2019-04-26T18:23:56.998Z,6.90
2019-04-26T18:26:24.451Z,5.13
2019-04-26T18:28:54.527Z,4.43
2019-04-26T18:31:22.160Z,3.40
2019-04-26T18:33:49.046Z,5.27
2019-04-26T18:36:16.065Z,4.70
2019-04-26T18:38:48.462Z,7.57
2019-04-26T18:41:13.585Z,8.17
2019-04-26T18:43:40.940Z,5.40
2019-04-26T18:48:46.877Z,4.20
2019-04-26T18:51:13.651Z,5.07
2019-04-26T18:56:43.536Z,3.87
2019-04-26T18:59:11.909Z,3.20
2019-04-26T19:01:41.879Z,3.73
2019-04-26T19:04:12.696Z,4.00
2019-04-26T19:06:37.933Z,10.17
2019-04-26T19:09:06.530Z,4.33
2019-04-26T19:11:35.655Z,4.37
2019-04-26T19:14:49.269Z,4.47
2019-04-26T19:20:22.783Z,6.20
2019-04-26T19:23:04.105Z,4.57
2019-04-26T19:25:34.026Z,4.67
2019-04-26T19:28:04.320Z,4.30
2019-04-26T19:30:29.356Z,6.63
2019-04-26T19:32:56.533Z,4.47
2019-04-26T19:35:23.766Z,5.37
2019-04-26T19:37:51.812Z,7.97
2019-04-26T19:40:19.657Z,4.73
2019-04-26T19:42:46.773Z,6.93
2019-04-26T19:45:55.215Z,4.80
2019-04-26T19:48:42.027Z,5.03
2019-04-26T19:51:29.095Z,4.30
2019-04-26T19:54:17.738Z,5.03
2019-04-26T19:56:51.397Z,6.03
2019-04-26T19:59:19.048Z,6.40
2019-04-26T20:01:47.154Z,4.97
2019-04-26T20:04:15.777Z,4.70
2019-04-26T20:06:43.351Z,5.77
2019-04-26T20:09:31.911Z,7.67
2019-04-26T20:12:02.330Z,6.13
2019-04-26T20:14:43.591Z,4.43
2019-04-26T20:16:58.516Z,7.67
2019-04-26T20:19:34.364Z,5.20
2019-04-26T20:21:55.667Z,5.67
2019-04-26T20:24:23.196Z,5.87
2019-04-26T20:26:52.268Z,8.87
2019-04-26T20:29:19.725Z,5.20
2019-04-26T20:35:28.721Z,5.80
2019-04-26T20:37:59.995Z,6.93
2019-04-26T20:40:25.654Z,6.27
2019-04-26T20:43:01.676Z,5.37
2019-04-26T20:45:23.349Z,7.00
2019-04-26T20:47:52.012Z,5.03
2019-04-26T20:50:19.563Z,5.03
2019-04-26T20:52:47.095Z,5.80
2019-04-26T20:55:14.408Z,8.03
2019-04-26T20:57:42.783Z,5.73
2019-04-26T21:00:36.468Z,6.27
2019-04-26T21:03:05.766Z,6.37
2019-04-26T21:05:43.389Z,5.63
2019-04-26T21:07:59.242Z,6.23
2019-04-26T21:10:26.402Z,8.93
2019-04-26T21:12:54.925Z,6.60
2019-04-26T21:15:24.178Z,7.00
2019-04-26T21:17:51.893Z,7.20
2019-04-26T21:20:21.563Z,6.83
2019-04-26T21:22:49.362Z,6.63
2019-04-26T21:25:36.373Z,6.87
2019-04-26T21:33:38.991Z,8.20
2019-04-26T21:38:52.939Z,11.03
2019-04-26T21:41:23.631Z,11.30
2019-04-26T21:43:50.834Z,11.23
2019-04-26T21:46:19.275Z,11.63
2019-04-26T21:48:47.213Z,11.93
2019-04-26T21:51:16.076Z,14.77
2019-04-26T21:53:45.167Z,15.60
2019-04-26T21:56:12.999Z,17.27
2019-04-26T21:58:41.397Z,20.97
2019-04-26T22:01:53.830Z,20.60
2019-04-26T22:04:18.501Z,24.43
2019-04-26T22:06:45.649Z,25.97
2019-04-26T22:09:53.944Z,25.47
2019-04-26T22:12:21.152Z,29.57
2019-04-26T22:17:41.601Z,30.83
2019-04-26T22:20:26.561Z,34.97
2019-04-26T22:23:16.317Z,30.43
2019-04-26T22:25:44.903Z,31.13
2019-04-26T22:28:13.083Z,32.40
2019-04-26T22:30:41.808Z,32.37
2019-04-26T22:33:09.158Z,29.13
2019-04-26T22:35:36.270Z,31.20
2019-04-26T22:38:04.025Z,28.63
2019-04-26T22:40:33.537Z,28.30
2019-04-26T22:43:22.951Z,26.13
2019-04-26T22:46:11.032Z,24.77
2019-04-26T22:48:40.029Z,20.60
2019-04-26T22:51:07.590Z,20.23
2019-04-26T22:53:34.765Z,19.87
2019-04-26T22:56:03.368Z,16.50
2019-04-26T22:58:31.286Z,18.73
2019-04-26T23:01:03.491Z,15.03
2019-04-26T23:03:28.013Z,15.93
2019-04-26T23:05:55.483Z,14.63
2019-04-26T23:08:23.624Z,16.33
2019-04-26T23:13:59.781Z,13.37
2019-04-26T23:17:01.458Z,13.87
2019-04-26T23:19:34.941Z,13.63
2019-04-26T23:22:03.898Z,13.50
2019-04-26T23:24:30.740Z,14.20
2019-04-26T23:26:57.524Z,13.60
2019-04-26T23:29:24.540Z,16.13
2019-04-26T23:31:53.462Z,15.33
2019-04-26T23:34:20.498Z,15.00
2019-04-26T23:36:49.099Z,15.40
2019-04-26T23:39:16.835Z,18.07
2019-04-26T23:41:44.610Z,15.17
2019-04-26T23:44:13.303Z,16.63
2019-04-26T23:46:43.283Z,18.40
2019-04-26T23:49:11.470Z,18.57
2019-04-26T23:51:43.167Z,17.30
2019-04-26T23:54:07.490Z,17.97
2019-04-26T23:56:34.226Z,18.60
2019-04-26T23:59:01.088Z,15.57
